createdAt,value
2023-05-10T00:00:18.947Z,14.80
2023-05-10T00:02:48.456Z,14.80
2023-05-10T00:05:17.454Z,14.80
2023-05-10T00:07:47.030Z,14.80
2023-05-10T00:10:16.247Z,14.80
2023-05-10T00:12:46.806Z,14.80
2023-05-10T00:15:15.867Z,14.70
2023-05-10T00:17:45.087Z,14.70
2023-05-10T00:20:14.748Z,14.70
2023-05-10T00:22:43.795Z,14.70
2023-05-10T00:25:12.958Z,14.70
2023-05-10T00:27:41.856Z,14.70
2023-05-10T00:30:13.041Z,14.60
2023-05-10T00:32:42.029Z,13.80
2023-05-10T00:35:11.381Z,14.60
2023-05-10T00:37:40.253Z,14.50
2023-05-10T00:40:10.281Z,14.50
2023-05-10T00:42:39.358Z,14.50
2023-05-10T00:45:12.668Z,14.50
2023-05-10T00:47:42.040Z,14.50
2023-05-10T00:50:12.115Z,14.60
2023-05-10T00:52:41.489Z,14.60
2023-05-10T00:55:12.036Z,14.60
2023-05-10T00:57:41.186Z,14.50
2023-05-10T01:00:13.482Z,14.50
2023-05-10T01:02:43.993Z,14.50
2023-05-10T01:05:13.304Z,14.50
2023-05-10T01:07:42.226Z,14.50
2023-05-10T01:10:12.993Z,14.50
2023-05-10T01:12:45.174Z,14.40
2023-05-10T01:15:17.385Z,14.40
2023-05-10T01:17:49.793Z,14.40
2023-05-10T01:20:45.808Z,14.40
2023-05-10T01:23:38.376Z,14.40
2023-05-10T01:26:38.534Z,13.60
2023-05-10T01:29:26.332Z,14.30
2023-05-10T01:32:18.537Z,14.30
2023-05-10T01:34:56.046Z,14.30
2023-05-10T01:37:31.609Z,14.30
2023-05-10T01:40:05.414Z,14.30
2023-05-10T01:42:42.943Z,14.30
2023-05-10T01:45:19.132Z,14.30
2023-05-10T01:47:53.679Z,14.30
2023-05-10T01:50:29.977Z,14.30
2023-05-10T01:53:01.769Z,14.30
2023-05-10T01:55:34.618Z,14.20
2023-05-10T01:58:06.952Z,14.20
2023-05-10T02:00:36.984Z,14.20
2023-05-10T02:03:11.310Z,14.20
2023-05-10T02:05:41.398Z,14.20
2023-05-10T02:08:11.417Z,14.20
2023-05-10T02:10:41.831Z,14.20
2023-05-10T02:13:12.765Z,14.20
2023-05-10T02:15:44.006Z,14.20
2023-05-10T02:18:17.773Z,14.20
2023-05-10T02:20:48.938Z,14.20
2023-05-10T02:23:19.864Z,14.10
2023-05-10T02:25:52.440Z,14.10
2023-05-10T02:28:24.706Z,14.10
2023-05-10T02:30:54.742Z,14.10
2023-05-10T02:33:25.827Z,14.10
2023-05-10T02:35:55.803Z,14.10
2023-05-10T02:38:26.639Z,14.00
2023-05-10T02:40:56.248Z,14.00
2023-05-10T02:43:26.981Z,14.00
2023-05-10T02:45:56.069Z,14.00
2023-05-10T02:48:26.684Z,14.00
2023-05-10T02:51:00.112Z,14.00
2023-05-10T02:53:36.635Z,14.00
2023-05-10T02:56:12.258Z,14.00
2023-05-10T02:58:41.533Z,13.90
2023-05-10T03:01:10.639Z,13.90
2023-05-10T03:03:43.515Z,13.90
2023-05-10T03:06:12.806Z,13.90
2023-05-10T03:08:41.878Z,13.90
2023-05-10T03:11:32.071Z,13.90
2023-05-10T03:14:19.066Z,13.90
2023-05-10T03:16:51.693Z,13.90
2023-05-10T03:19:39.061Z,13.90
2023-05-10T03:22:15.533Z,13.90
2023-05-10T03:24:45.762Z,13.90
2023-05-10T03:27:15.918Z,13.90
2023-05-10T03:29:47.626Z,13.90
2023-05-10T03:32:17.695Z,13.90
2023-05-10T03:34:49.145Z,13.90
2023-05-10T03:37:18.409Z,13.90
2023-05-10T03:39:47.817Z,13.90
2023-05-10T03:42:19.076Z,13.90
2023-05-10T03:44:53.894Z,13.90
2023-05-10T03:47:23.035Z,13.90
2023-05-10T03:49:53.445Z,14.00
2023-05-10T03:52:22.378Z,14.00
2023-05-10T03:54:51.591Z,14.00
2023-05-10T03:57:20.874Z,14.00
2023-05-10T03:59:49.674Z,14.00
2023-05-10T04:02:19.601Z,14.00
2023-05-10T04:04:49.386Z,14.00
2023-05-10T04:07:20.294Z,14.10
2023-05-10T04:09:49.873Z,14.10
2023-05-10T04:12:18.953Z,14.10
2023-05-10T04:14:47.832Z,14.10
2023-05-10T04:17:16.901Z,14.10
2023-05-10T04:19:45.926Z,14.10
2023-05-10T04:22:14.862Z,14.20
2023-05-10T04:24:45.195Z,14.20
2023-05-10T04:27:14.311Z,14.20
2023-05-10T04:29:43.220Z,14.20
2023-05-10T04:32:12.469Z,14.20
2023-05-10T04:34:41.542Z,14.20
2023-05-10T04:37:10.423Z,14.20
2023-05-10T04:39:40.969Z,14.20
2023-05-10T04:42:31.287Z,14.20
2023-05-10T04:45:00.455Z,14.20
2023-05-10T04:47:29.506Z,14.20
2023-05-10T04:49:58.660Z,14.20
2023-05-10T04:52:27.592Z,14.20
2023-05-10T04:54:57.109Z,14.30
2023-05-10T04:57:26.021Z,14.30
2023-05-10T04:59:56.748Z,14.30
2023-05-10T05:02:26.155Z,14.30
2023-05-10T05:04:55.020Z,14.30
2023-05-10T05:07:24.310Z,14.30
2023-05-10T05:09:53.223Z,14.30
2023-05-10T05:12:22.128Z,14.30
2023-05-10T05:14:51.113Z,14.30
2023-05-10T05:17:21.459Z,14.30
2023-05-10T05:19:50.427Z,14.20
2023-05-10T05:22:20.561Z,14.20
2023-05-10T05:24:49.587Z,14.20
2023-05-10T05:27:25.368Z,14.30
2023-05-10T05:29:55.688Z,14.30
2023-05-10T05:32:26.409Z,14.30
2023-05-10T05:34:55.477Z,14.30
2023-05-10T05:37:25.628Z,14.30
2023-05-10T05:39:55.658Z,14.30
2023-05-10T05:42:43.640Z,14.30
2023-05-10T05:45:14.538Z,14.40
2023-05-10T05:47:45.327Z,14.30
2023-05-10T05:50:14.399Z,14.40
2023-05-10T05:52:43.279Z,14.40
2023-05-10T05:55:13.016Z,14.40
2023-05-10T05:57:41.936Z,14.40
2023-05-10T06:00:11.649Z,14.50
2023-05-10T06:02:45.254Z,14.50
2023-05-10T06:05:15.357Z,14.60
2023-05-10T06:07:44.567Z,14.60
2023-05-10T06:10:13.765Z,14.60
2023-05-10T06:12:42.984Z,14.70
2023-05-10T06:15:15.281Z,14.80
2023-05-10T06:17:45.913Z,14.80
2023-05-10T06:20:15.970Z,14.90
2023-05-10T06:22:45.202Z,14.90
2023-05-10T06:25:15.527Z,14.90
2023-05-10T06:27:48.030Z,15.00
2023-05-10T06:30:18.971Z,15.00
2023-05-10T06:32:49.313Z,15.10
2023-05-10T06:35:18.765Z,15.10
2023-05-10T06:37:48.778Z,15.10
2023-05-10T06:40:18.307Z,15.20
2023-05-10T06:42:47.529Z,15.20
2023-05-10T06:45:17.127Z,15.30
2023-05-10T06:47:47.076Z,15.30
2023-05-10T06:50:17.797Z,15.30
2023-05-10T06:52:46.778Z,15.30
2023-05-10T06:55:16.097Z,15.30
2023-05-10T06:57:45.146Z,15.40
2023-05-10T07:00:15.775Z,15.40
2023-05-10T07:02:45.729Z,15.50
2023-05-10T07:05:15.460Z,15.60
2023-05-10T07:07:45.870Z,15.60
2023-05-10T07:10:19.333Z,15.60
2023-05-10T07:12:48.529Z,15.60
2023-05-10T07:15:18.441Z,15.60
2023-05-10T07:17:47.973Z,15.70
2023-05-10T07:20:17.072Z,15.70
2023-05-10T07:22:47.376Z,15.70
2023-05-10T07:25:16.444Z,15.80
2023-05-10T07:27:45.666Z,15.80
2023-05-10T07:30:16.325Z,15.80
2023-05-10T07:32:45.506Z,15.80
2023-05-10T07:35:14.719Z,15.80
2023-05-10T07:37:43.815Z,15.90
2023-05-10T07:40:14.582Z,15.90
2023-05-10T07:42:43.480Z,16.00
2023-05-10T07:45:12.691Z,16.00
2023-05-10T07:47:41.724Z,16.00
2023-05-10T07:50:11.291Z,16.00
2023-05-10T07:52:40.375Z,16.10
2023-05-10T07:55:10.451Z,16.10
2023-05-10T07:57:41.242Z,16.10
2023-05-10T08:00:11.254Z,16.20
2023-05-10T08:02:43.892Z,16.30
2023-05-10T08:05:13.159Z,16.40
2023-05-10T08:07:42.119Z,16.40
2023-05-10T08:10:12.689Z,16.50
2023-05-10T08:12:43.128Z,16.60
2023-05-10T08:15:13.204Z,16.60
2023-05-10T08:17:42.301Z,16.70
2023-05-10T08:20:14.059Z,16.80
2023-05-10T08:22:43.068Z,16.80
2023-05-10T08:25:12.190Z,16.80
2023-05-10T08:27:42.583Z,16.80
2023-05-10T08:30:13.226Z,16.80
2023-05-10T08:32:42.401Z,16.80
2023-05-10T08:35:11.543Z,16.80
2023-05-10T08:37:40.434Z,16.80
2023-05-10T08:40:11.929Z,16.80
2023-05-10T08:42:47.731Z,16.80
2023-05-10T08:45:18.233Z,16.80
2023-05-10T08:47:48.199Z,16.80
2023-05-10T08:50:19.023Z,16.80
2023-05-10T08:52:50.434Z,16.80
2023-05-10T08:55:19.632Z,16.80
2023-05-10T08:57:50.134Z,16.90
2023-05-10T09:00:20.857Z,16.90
2023-05-10T09:02:52.117Z,16.90
2023-05-10T09:05:21.249Z,16.90
2023-05-10T09:07:50.258Z,16.90
2023-05-10T09:10:19.460Z,16.90
2023-05-10T09:12:50.382Z,16.90
2023-05-10T09:15:21.529Z,16.90
2023-05-10T09:17:52.300Z,17.00
2023-05-10T09:20:21.741Z,17.10
2023-05-10T09:22:50.854Z,17.10
2023-05-10T09:25:19.944Z,17.20
2023-05-10T09:27:51.166Z,17.20
2023-05-10T09:30:26.163Z,17.20
2023-05-10T09:32:55.679Z,17.20
2023-05-10T09:35:29.339Z,17.30
2023-05-10T09:38:07.539Z,17.30
2023-05-10T09:40:36.476Z,17.30
2023-05-10T09:43:09.729Z,17.30
2023-05-10T09:45:39.420Z,17.30
2023-05-10T09:48:09.230Z,17.40
2023-05-10T09:50:38.262Z,17.50
2023-05-10T09:53:07.921Z,17.60
2023-05-10T09:55:47.238Z,17.70
2023-05-10T09:58:17.968Z,17.80
2023-05-10T10:00:49.092Z,17.80
2023-05-10T10:03:20.100Z,17.90
2023-05-10T10:05:50.188Z,17.90
2023-05-10T10:08:19.899Z,17.90
2023-05-10T10:10:51.618Z,17.90
2023-05-10T10:13:22.153Z,17.90
2023-05-10T10:15:52.470Z,17.80
2023-05-10T10:18:24.986Z,17.80
2023-05-10T10:20:54.815Z,17.80
2023-05-10T10:23:24.712Z,17.90
2023-05-10T10:25:55.434Z,17.80
2023-05-10T10:28:43.891Z,17.90
2023-05-10T10:31:25.957Z,17.90
2023-05-10T10:34:03.074Z,18.00
2023-05-10T10:36:34.446Z,18.00
2023-05-10T10:39:05.307Z,18.10
2023-05-10T10:41:36.097Z,18.10
2023-05-10T10:44:28.898Z,18.10
2023-05-10T10:47:10.405Z,18.00
2023-05-10T10:49:50.813Z,18.00
2023-05-10T10:52:27.997Z,18.00
2023-05-10T10:55:19.472Z,18.00
2023-05-10T10:57:50.931Z,18.00
2023-05-10T11:00:30.334Z,18.00
2023-05-10T11:03:01.283Z,18.10
2023-05-10T11:05:48.679Z,18.10
2023-05-10T11:08:21.011Z,18.10
2023-05-10T11:11:09.178Z,18.00
2023-05-10T11:13:50.082Z,17.90
2023-05-10T11:16:24.858Z,17.90
2023-05-10T11:19:03.080Z,17.80
2023-05-10T11:21:55.304Z,17.80
2023-05-10T11:24:29.888Z,17.70
2023-05-10T11:26:59.744Z,17.60
2023-05-10T11:29:28.841Z,17.60
2023-05-10T11:32:01.762Z,17.50
2023-05-10T11:34:34.880Z,17.50
2023-05-10T11:37:04.617Z,17.40
2023-05-10T11:39:34.749Z,17.30
2023-05-10T11:42:03.743Z,17.30
2023-05-10T11:44:33.439Z,17.20
2023-05-10T11:47:04.627Z,17.20
2023-05-10T11:49:33.744Z,17.10
2023-05-10T11:52:08.024Z,17.10
2023-05-10T11:54:37.244Z,17.10
2023-05-10T11:57:06.515Z,17.00
2023-05-10T11:59:35.484Z,17.00
2023-05-10T12:02:06.132Z,17.00
2023-05-10T12:04:35.469Z,17.00
2023-05-10T12:07:04.421Z,17.00
2023-05-10T12:09:43.171Z,16.90
2023-05-10T12:12:12.578Z,16.90
2023-05-10T12:14:41.563Z,16.90
2023-05-10T12:17:15.803Z,16.90
2023-05-10T12:19:45.079Z,16.80
2023-05-10T12:22:13.995Z,16.80
2023-05-10T12:24:42.916Z,16.80
2023-05-10T12:27:13.585Z,16.80
2023-05-10T12:29:46.265Z,16.70
2023-05-10T12:32:16.632Z,16.70
2023-05-10T12:34:49.064Z,16.70
2023-05-10T12:37:18.062Z,16.70
2023-05-10T12:39:48.298Z,16.70
2023-05-10T12:42:17.239Z,16.60
2023-05-10T12:44:46.044Z,16.60
2023-05-10T12:47:16.235Z,16.60
2023-05-10T12:49:45.252Z,16.60
2023-05-10T12:52:14.173Z,16.60
2023-05-10T12:54:43.025Z,16.60
2023-05-10T12:57:13.911Z,16.60
2023-05-10T12:59:42.873Z,16.60
2023-05-10T13:02:12.039Z,16.60
2023-05-10T13:04:43.040Z,16.60
2023-05-10T13:07:12.272Z,16.60
2023-05-10T13:09:41.195Z,16.60
2023-05-10T13:12:10.384Z,16.60
2023-05-10T13:14:41.495Z,16.50
2023-05-10T13:17:10.711Z,16.40
2023-05-10T13:19:39.557Z,16.40
2023-05-10T13:22:10.083Z,16.30
2023-05-10T13:24:39.013Z,16.30
2023-05-10T13:27:07.891Z,16.20
2023-05-10T13:29:36.847Z,16.10
2023-05-10T13:32:05.993Z,16.10
2023-05-10T13:34:36.816Z,16.10
2023-05-10T13:37:05.770Z,16.10
2023-05-10T13:39:37.484Z,16.10
2023-05-10T13:42:07.874Z,16.00
2023-05-10T13:44:37.319Z,16.00
2023-05-10T13:47:06.117Z,16.00
2023-05-10T13:49:35.157Z,16.00
2023-05-10T13:52:08.071Z,16.00
2023-05-10T13:54:39.166Z,16.00
2023-05-10T13:57:08.932Z,16.00
2023-05-10T13:59:38.537Z,16.10
2023-05-10T14:02:07.530Z,16.10
2023-05-10T14:04:36.785Z,16.10
2023-05-10T14:07:05.664Z,16.20
2023-05-10T14:09:34.567Z,16.30
2023-05-10T14:12:05.133Z,16.30
2023-05-10T14:14:34.435Z,16.30
2023-05-10T14:17:03.457Z,16.40
2023-05-10T14:19:33.688Z,16.30
2023-05-10T14:22:02.547Z,16.30
2023-05-10T14:24:31.417Z,16.30
2023-05-10T14:27:00.189Z,16.30
2023-05-10T14:29:30.718Z,16.20
2023-05-10T14:31:59.734Z,16.20
2023-05-10T14:34:28.609Z,16.10
2023-05-10T14:36:57.740Z,16.10
2023-05-10T14:39:26.873Z,16.10
2023-05-10T14:41:55.683Z,16.10
2023-05-10T14:44:24.990Z,16.00
2023-05-10T14:46:55.333Z,16.00
2023-05-10T14:49:26.910Z,15.90
2023-05-10T14:51:57.035Z,15.90
2023-05-10T14:54:26.050Z,15.90
2023-05-10T14:56:54.988Z,15.80
2023-05-10T14:59:23.870Z,15.80
2023-05-10T15:01:55.302Z,15.70
2023-05-10T15:04:27.063Z,15.70
2023-05-10T15:07:00.391Z,15.70
2023-05-10T15:09:29.643Z,15.70
2023-05-10T15:11:58.937Z,15.60
2023-05-10T15:14:27.906Z,15.60
2023-05-10T15:16:59.641Z,15.60
2023-05-10T15:19:30.149Z,15.50
2023-05-10T15:21:59.251Z,15.50
2023-05-10T15:24:28.615Z,15.50
2023-05-10T15:26:57.537Z,15.50
2023-05-10T15:29:26.828Z,15.50
2023-05-10T15:31:55.762Z,15.40
2023-05-10T15:34:26.247Z,15.40
2023-05-10T15:37:09.371Z,15.40
2023-05-10T15:39:40.038Z,15.40
2023-05-10T15:42:09.248Z,15.40
2023-05-10T15:44:39.528Z,15.40
2023-05-10T15:47:08.527Z,15.30
2023-05-10T15:49:39.046Z,15.30
2023-05-10T15:52:08.095Z,15.40
2023-05-10T15:54:36.960Z,15.30
2023-05-10T15:57:06.025Z,15.30
2023-05-10T15:59:36.010Z,15.30
2023-05-10T16:02:05.269Z,15.30
2023-05-10T16:04:34.323Z,15.30
2023-05-10T16:07:05.066Z,15.30
2023-05-10T16:09:34.118Z,15.30
2023-05-10T16:12:05.467Z,15.30
2023-05-10T16:14:34.626Z,15.30
2023-05-10T16:17:05.179Z,15.30
2023-05-10T16:19:34.355Z,15.30
2023-05-10T16:22:07.911Z,15.30
2023-05-10T16:24:36.989Z,15.40
2023-05-10T16:27:06.337Z,15.40
2023-05-10T16:29:35.266Z,15.40
2023-05-10T16:32:04.233Z,15.40
2023-05-10T16:34:33.088Z,15.50
2023-05-10T16:37:03.455Z,15.50
2023-05-10T16:39:32.538Z,15.60
2023-05-10T16:42:01.322Z,15.60
2023-05-10T16:44:30.416Z,15.60
2023-05-10T16:46:59.384Z,15.60
2023-05-10T16:49:28.217Z,15.50
2023-05-10T16:51:57.059Z,15.50
2023-05-10T16:54:27.649Z,15.50
2023-05-10T16:56:56.635Z,15.50
2023-05-10T16:59:25.778Z,15.50
2023-05-10T17:01:54.832Z,15.50
2023-05-10T17:04:23.678Z,15.50
2023-05-10T17:06:52.645Z,15.40
2023-05-10T17:09:21.631Z,15.40
2023-05-10T17:11:51.888Z,15.40
2023-05-10T17:14:20.775Z,15.40
2023-05-10T17:16:52.857Z,15.30
2023-05-10T17:19:23.644Z,15.30
2023-05-10T17:21:54.613Z,15.30
2023-05-10T17:24:23.677Z,15.30
2023-05-10T17:26:54.083Z,15.20
2023-05-10T17:29:23.112Z,15.20
2023-05-10T17:31:52.039Z,15.20
2023-05-10T17:34:21.928Z,15.20
2023-05-10T17:36:50.941Z,15.20
2023-05-10T17:39:19.835Z,15.10
2023-05-10T17:41:48.780Z,15.10
2023-05-10T17:44:19.805Z,15.10
2023-05-10T17:46:49.232Z,15.10
2023-05-10T17:49:18.238Z,15.10
2023-05-10T17:51:49.106Z,15.10
2023-05-10T17:54:18.248Z,15.10
2023-05-10T17:56:47.651Z,15.20
2023-05-10T17:59:16.603Z,15.20
2023-05-10T18:01:47.306Z,15.20
2023-05-10T18:04:16.774Z,15.20
2023-05-10T18:06:45.660Z,15.10
2023-05-10T18:09:16.530Z,15.10
2023-05-10T18:11:45.560Z,15.10
2023-05-10T18:14:14.618Z,15.00
2023-05-10T18:16:48.506Z,15.00
2023-05-10T18:19:17.516Z,15.00
2023-05-10T18:21:46.419Z,15.00
2023-05-10T18:24:16.832Z,14.90
2023-05-10T18:26:49.318Z,14.90
2023-05-10T18:29:18.332Z,14.90
2023-05-10T18:31:48.677Z,14.90
2023-05-10T18:34:17.746Z,14.90
2023-05-10T18:36:46.706Z,14.90
2023-05-10T18:39:18.124Z,14.90
2023-05-10T18:41:47.203Z,15.00
2023-05-10T18:44:15.993Z,15.00
2023-05-10T18:46:45.193Z,15.00
2023-05-10T18:49:39.796Z,15.00
2023-05-10T18:52:11.897Z,15.00
2023-05-10T18:54:40.850Z,15.00
2023-05-10T18:57:11.047Z,15.00
2023-05-10T18:59:40.429Z,15.00
2023-05-10T19:02:09.971Z,15.00
2023-05-10T19:04:40.992Z,15.00
2023-05-10T19:07:10.149Z,15.00
2023-05-10T19:09:39.670Z,15.00
2023-05-10T19:12:09.569Z,15.00
2023-05-10T19:14:38.832Z,15.00
2023-05-10T19:17:08.922Z,15.00
2023-05-10T19:19:40.193Z,15.00
2023-05-10T19:22:11.282Z,15.00
2023-05-10T19:24:40.844Z,15.00
2023-05-10T19:27:10.096Z,15.00
2023-05-10T19:29:39.150Z,15.00
2023-05-10T19:32:08.180Z,15.00
2023-05-10T19:34:37.129Z,15.00
2023-05-10T19:37:07.594Z,15.00
2023-05-10T19:39:37.219Z,14.90
2023-05-10T19:42:07.223Z,15.00
2023-05-10T19:44:38.111Z,15.00
2023-05-10T19:47:09.637Z,15.00
2023-05-10T19:49:39.413Z,14.90
2023-05-10T19:52:11.986Z,14.90
2023-05-10T19:54:40.895Z,14.90
2023-05-10T19:57:11.337Z,14.90
2023-05-10T19:59:41.353Z,14.80
2023-05-10T20:02:10.360Z,14.80
2023-05-10T20:04:39.258Z,14.80
2023-05-10T20:07:09.841Z,14.70
2023-05-10T20:09:45.256Z,14.70
2023-05-10T20:12:15.243Z,14.70
2023-05-10T20:14:49.902Z,14.70
2023-05-10T20:17:37.883Z,14.70
2023-05-10T20:20:07.887Z,14.70
2023-05-10T20:22:38.298Z,14.70
2023-05-10T20:25:08.755Z,14.70
2023-05-10T20:27:38.031Z,14.70
2023-05-10T20:30:08.504Z,14.70
2023-05-10T20:32:37.840Z,14.60
2023-05-10T20:35:10.381Z,14.70
2023-05-10T20:37:41.142Z,14.70
2023-05-10T20:40:11.305Z,15.60
2023-05-10T20:42:40.246Z,14.60
2023-05-10T20:45:10.454Z,14.60
2023-05-10T20:47:39.338Z,14.60
2023-05-10T20:50:09.426Z,14.60
2023-05-10T20:52:39.813Z,14.60
2023-05-10T20:55:09.728Z,14.50
2023-05-10T20:57:38.819Z,14.50
2023-05-10T21:00:11.290Z,14.50
2023-05-10T21:02:40.202Z,14.50
2023-05-10T21:05:09.945Z,14.50
2023-05-10T21:07:40.832Z,14.50
2023-05-10T21:10:12.105Z,14.50
2023-05-10T21:12:41.220Z,14.50
2023-05-10T21:15:11.103Z,14.50
2023-05-10T21:17:40.022Z,14.50
2023-05-10T21:20:10.299Z,14.50
2023-05-10T21:22:40.756Z,14.50
2023-05-10T21:25:10.456Z,14.50
2023-05-10T21:27:39.726Z,14.50
2023-05-10T21:30:09.972Z,14.40
2023-05-10T21:32:38.918Z,14.40
2023-05-10T21:35:09.066Z,14.40
2023-05-10T21:37:40.170Z,14.40
2023-05-10T21:40:09.992Z,14.40
2023-05-10T21:42:39.843Z,14.40
2023-05-10T21:45:10.436Z,14.30
2023-05-10T21:47:39.654Z,14.30
2023-05-10T21:50:10.533Z,14.30
2023-05-10T21:52:41.271Z,14.30
2023-05-10T21:55:11.195Z,14.30
2023-05-10T21:57:41.534Z,14.20
2023-05-10T22:00:11.667Z,14.20
2023-05-10T22:02:41.467Z,14.20
2023-05-10T22:05:11.285Z,14.10
2023-05-10T22:07:47.478Z,14.10
2023-05-10T22:10:17.199Z,14.10
2023-05-10T22:12:48.522Z,14.10
2023-05-10T22:15:18.023Z,14.10
2023-05-10T22:17:49.683Z,14.10
2023-05-10T22:20:19.214Z,14.10
2023-05-10T22:22:49.796Z,14.10
2023-05-10T22:25:18.797Z,14.10
2023-05-10T22:27:47.789Z,14.10
2023-05-10T22:30:17.527Z,14.10
2023-05-10T22:32:46.804Z,14.00
2023-05-10T22:35:34.203Z,14.00
2023-05-10T22:38:04.525Z,14.00
2023-05-10T22:40:33.460Z,14.00
2023-05-10T22:43:02.474Z,14.10
2023-05-10T22:45:31.429Z,14.10
2023-05-10T22:48:01.121Z,14.10
2023-05-10T22:50:32.261Z,14.10
2023-05-10T22:53:03.640Z,14.10
2023-05-10T22:55:34.234Z,14.10
2023-05-10T22:58:03.328Z,14.10
2023-05-10T23:00:32.236Z,14.10
2023-05-10T23:03:01.432Z,14.10
2023-05-10T23:05:30.439Z,14.10
2023-05-10T23:07:59.289Z,14.10
2023-05-10T23:10:28.262Z,14.00
2023-05-10T23:12:58.664Z,14.00
2023-05-10T23:15:27.583Z,14.00
2023-05-10T23:17:56.856Z,14.00
2023-05-10T23:20:25.796Z,14.00
2023-05-10T23:22:54.746Z,14.00
2023-05-10T23:25:23.663Z,14.00
2023-05-10T23:27:52.821Z,14.00
2023-05-10T23:30:23.288Z,14.00
2023-05-10T23:32:52.223Z,14.00
2023-05-10T23:35:21.482Z,14.00
2023-05-10T23:37:50.501Z,14.00
2023-05-10T23:40:19.657Z,14.00
2023-05-10T23:42:49.236Z,14.00
2023-05-10T23:45:18.431Z,14.00
2023-05-10T23:47:48.800Z,14.00
2023-05-10T23:50:18.129Z,14.00
2023-05-10T23:52:47.236Z,14.00
2023-05-10T23:55:16.616Z,14.00
2023-05-10T23:57:45.613Z,14.00
